Time;durP1;ratioP1;P1;durP2;ratioP2;P2;SDS_P1;SDS_P2;PMS_P1;PMS_P2;Temp;Humidity;BMP_temperature;BMP_pressure;BME280_temperature;BME280_humidity;BME280_pressure;Samples;Min_cycle;Max_cycle;Signal;HPM_P1;HPM_P2
2023/03/06 00:00:38;;;;;;;38.30;21.17;;;204.90;2252.80;;;;;;5074279;28;20044;-75
2023/03/06 00:03:04;;;;;;;43.08;22.63;;;205.20;2252.80;;;;;;5089142;28;20027;-75
2023/03/06 00:05:30;;;;;;;41.28;22.58;;;205.10;2252.80;;;;;;5075934;28;20220;-75
2023/03/06 00:07:56;;;;;;;;;;;205.20;2252.80;;;;;;5075845;28;20024;-76
2023/03/06 00:10:27;;;;;;;30.55;16.52;;;205.20;2252.80;;;;;;5075062;28;19911;-76
2023/03/06 00:12:56;;;;;;;28.20;15.60;;;205.20;2252.80;;;;;;5075276;28;20503;-75
2023/03/06 00:15:23;;;;;;;32.70;17.35;;;205.20;2252.80;;;;;;5075246;28;20020;-75
2023/03/06 00:17:48;;;;;;;29.45;16.17;;;205.10;2252.80;;;;;;5082066;28;20017;-75
2023/03/06 00:20:14;;;;;;;;;;;205.00;2252.80;;;;;;5080931;28;20142;-76
2023/03/06 00:22:40;;;;;;;25.55;14.68;;;205.00;2252.80;;;;;;5074008;28;19909;-76
2023/03/06 00:25:07;;;;;;;30.45;16.45;;;205.10;2252.80;;;;;;5073629;28;20021;-75
2023/03/06 00:27:34;;;;;;;35.42;17.13;;;205.20;2252.80;;;;;;5074708;28;20046;-75
2023/03/06 00:30:00;;;;;;;28.55;17.67;;;205.20;2252.80;;;;;;5074967;28;20032;-76
2023/03/06 00:32:27;;;;;;;30.83;15.93;;;205.30;2252.80;;;;;;5074779;28;20048;-76
2023/03/06 00:34:53;;;;;;;32.28;17.38;;;205.20;2252.80;;;;;;5074824;28;20091;-75
2023/03/06 00:37:20;;;;;;;30.52;16.10;;;205.10;2252.80;;;;;;5075460;28;20028;-76
2023/03/06 00:39:48;;;;;;;33.13;18.50;;;205.20;2252.80;;;;;;5074417;28;20036;-76
2023/03/06 00:42:14;;;;;;;34.67;18.13;;;205.10;2252.80;;;;;;5077082;28;20013;-76
2023/03/06 00:44:40;;;;;;;32.38;19.55;;;205.10;2252.80;;;;;;5074772;28;20048;-75
2023/03/06 00:47:06;;;;;;;;;;;205.20;2252.80;;;;;;5073485;28;20028;-75
2023/03/06 00:49:32;;;;;;;37.55;18.67;;;205.30;2252.80;;;;;;5089698;28;19912;-75
2023/03/06 00:51:57;;;;;;;;;;;205.40;2252.80;;;;;;5075009;28;20029;-74
2023/03/06 00:54:23;;;;;;;30.02;16.33;;;205.50;2252.80;;;;;;5072688;28;19904;-75
2023/03/06 00:56:48;;;;;;;;;;;205.50;2252.80;;;;;;5074818;28;20044;-75
2023/03/06 00:59:14;;;;;;;34.20;18.75;;;205.50;2252.80;;;;;;5072968;28;19905;-75
2023/03/06 01:01:40;;;;;;;;;;;205.50;2252.80;;;;;;5075556;28;20032;-76
2023/03/06 01:04:05;;;;;;;39.85;20.95;;;205.50;2252.80;;;;;;5074421;28;19904;-75
2023/03/06 01:06:31;;;;;;;43.42;20.17;;;205.50;2252.80;;;;;;5074332;28;20028;-75
2023/03/06 01:08:57;;;;;;;37.30;19.60;;;205.40;2252.80;;;;;;5074880;28;20047;-75
2023/03/06 01:11:22;;;;;;;;;;;205.40;2252.80;;;;;;5073217;28;20077;-75
2023/03/06 01:13:48;;;;;;;35.10;19.33;;;205.40;2252.80;;;;;;5074013;28;19908;-76
2023/03/06 01:16:14;;;;;;;;;;;205.40;2252.80;;;;;;5074496;28;20489;-76
2023/03/06 01:18:41;;;;;;;26.87;13.43;;;205.50;2252.80;;;;;;5074017;28;19995;-76
2023/03/06 01:21:07;;;;;;;37.58;18.60;;;205.30;2252.80;;;;;;5074057;28;20028;-75
2023/03/06 01:23:33;;;;;;;35.10;18.10;;;205.20;2252.80;;;;;;5074690;28;20044;-76
2023/03/06 01:25:59;;;;;;;;;;;205.20;2252.80;;;;;;5072981;28;20519;-75
2023/03/06 01:28:26;;;;;;;29.85;18.55;;;205.10;2252.80;;;;;;5062432;28;19995;-75
2023/03/06 01:30:52;;;;;;;42.35;22.38;;;205.20;2252.80;;;;;;5053355;28;20048;-76
2023/03/06 01:33:17;;;;;;;;;;;205.20;2252.80;;;;;;5053227;28;20057;-76
2023/03/06 01:35:43;;;;;;;33.10;18.95;;;205.20;2252.80;;;;;;5053296;28;20368;-75
2023/03/06 01:38:09;;;;;;;;;;;205.20;2252.80;;;;;;5055001;28;20017;-76
2023/03/06 01:40:36;;;;;;;27.48;14.88;;;205.10;2252.80;;;;;;5052895;28;19913;-76
2023/03/06 01:43:25;;;;;;;31.20;17.60;;;205.20;2252.80;;;;;;5054282;28;20373;-76
2023/03/06 01:45:50;;;;;;;30.38;16.00;;;205.20;2252.80;;;;;;5053049;28;20421;-76
2023/03/06 01:48:20;;;;;;;;;;;205.30;2252.80;;;;;;5053575;28;20021;-76
2023/03/06 01:50:47;;;;;;;29.83;14.35;;;205.30;2252.80;;;;;;5053010;28;19905;-76
2023/03/06 01:53:13;;;;;;;33.58;15.55;;;205.30;2252.80;;;;;;5054216;28;20476;-76
2023/03/06 01:55:39;;;;;;;26.92;14.65;;;205.20;2252.80;;;;;;5052578;28;20106;-76
2023/03/06 01:58:07;;;;;;;;;;;205.20;2252.80;;;;;;5053349;28;20525;-77
2023/03/06 02:00:33;;;;;;;25.35;13.65;;;205.10;2252.80;;;;;;5052857;28;19912;-75
2023/03/06 02:03:09;;;;;;;;;;;204.90;2252.80;;;;;;5053146;28;20021;-76
2023/03/06 02:05:38;;;;;;;26.35;13.32;;;180.10;2252.80;;;;;;5054000;28;19959;-76
2023/03/06 02:08:05;;;;;;;20.85;12.20;;;180.00;2252.80;;;;;;5053804;28;20029;-76
2023/03/06 02:10:31;;;;;;;24.80;14.25;;;179.90;2252.80;;;;;;5052141;28;20033;-76
2023/03/06 02:12:57;;;;;;;23.45;13.48;;;179.80;2252.80;;;;;;5052513;28;20029;-76
2023/03/06 02:15:24;;;;;;;;;;;180.00;2252.80;;;;;;5052984;28;20082;-75
2023/03/06 02:17:51;;;;;;;20.15;10.65;;;180.10;2252.80;;;;;;5052496;28;19904;-75
2023/03/06 02:20:23;;;;;;;27.23;14.00;;;180.00;2252.80;;;;;;5053623;28;20094;-76
2023/03/06 02:23:18;;;;;;;23.42;12.85;;;204.90;2252.80;;;;;;5053624;28;20025;-76
2023/03/06 02:25:47;;;;;;;27.83;14.20;;;180.10;2252.80;;;;;;5053492;28;20088;-76
2023/03/06 02:28:15;;;;;;;23.83;14.38;;;204.80;2252.80;;;;;;5052363;28;20069;-76
2023/03/06 02:30:42;;;;;;;22.83;12.52;;;204.80;2252.80;;;;;;5053571;28;20033;-77
2023/03/06 02:33:20;;;;;;;22.70;12.95;;;180.10;2252.80;;;;;;5052141;28;20048;-76
2023/03/06 02:35:57;;;;;;;27.75;14.25;;;180.00;2252.80;;;;;;5051766;28;20124;-76
2023/03/06 02:38:48;;;;;;;21.67;10.68;;;180.10;2252.80;;;;;;5053735;28;20021;-76
2023/03/06 02:41:15;;;;;;;27.52;16.20;;;180.10;2252.80;;;;;;5051962;28;20071;-76
2023/03/06 02:43:44;;;;;;;31.60;17.77;;;180.00;2252.80;;;;;;5051109;28;20047;-76
2023/03/06 02:46:10;;;;;;;32.13;18.35;;;180.00;2252.80;;;;;;5053369;28;20567;-76
2023/03/06 02:48:35;;;;;;;;;;;180.10;2252.80;;;;;;5052560;28;20029;-76
2023/03/06 02:51:01;;;;;;;36.33;16.77;;;180.00;2252.80;;;;;;5052161;28;19958;-76
2023/03/06 02:53:27;;;;;;;;;;;204.80;2252.80;;;;;;5051929;28;20065;-76
2023/03/06 02:55:53;;;;;;;30.98;17.88;;;204.80;2252.80;;;;;;5053171;28;19912;-77
2023/03/06 02:58:19;;;;;;;34.13;17.58;;;205.10;2252.80;;;;;;5051955;28;20059;-76
2023/03/06 03:00:46;;;;;;;;;;;205.00;2252.80;;;;;;5053555;28;20493;-76
2023/03/06 03:03:12;;;;;;;28.20;13.90;;;205.20;2252.80;;;;;;5053225;28;20007;-76
2023/03/06 03:05:37;;;;;;;;;;;205.20;2252.80;;;;;;5053740;28;20053;-76
2023/03/06 03:08:03;;;;;;;32.85;17.67;;;205.20;2252.80;;;;;;5051940;28;20371;-77
2023/03/06 03:10:28;;;;;;;;;;;205.10;2252.80;;;;;;5053801;28;20554;-76
2023/03/06 03:12:54;;;;;;;32.15;18.67;;;205.10;2252.80;;;;;;5051602;28;19986;-76
2023/03/06 03:15:20;;;;;;;;;;;205.10;2252.80;;;;;;5052188;28;20100;-76
2023/03/06 03:17:46;;;;;;;33.70;19.08;;;205.00;2252.80;;;;;;5051862;28;19905;-75
2023/03/06 03:20:13;;;;;;;;;;;205.10;2252.80;;;;;;5052027;28;20467;-76
2023/03/06 03:22:39;;;;;;;35.67;18.60;;;204.90;2252.80;;;;;;5052974;28;20253;-76
2023/03/06 03:25:05;;;;;;;;;;;204.90;2252.80;;;;;;5053581;28;20466;-75
2023/03/06 03:27:31;;;;;;;32.40;17.63;;;205.00;2252.80;;;;;;5052828;28;19914;-76
2023/03/06 03:29:58;;;;;;;33.22;19.48;;;205.10;2252.80;;;;;;5052788;28;20466;-77
2023/03/06 03:32:24;;;;;;;37.70;21.05;;;204.90;2252.80;;;;;;5052620;28;20051;-76
2023/03/06 03:34:50;;;;;;;38.85;22.77;;;204.90;2252.80;;;;;;5051179;28;20021;-76
2023/03/06 03:37:16;;;;;;;;;;;204.90;2252.80;;;;;;5052885;28;20367;-76
2023/03/06 03:39:42;;;;;;;51.95;27.33;;;204.90;2252.80;;;;;;5052191;28;20007;-76
2023/03/06 03:42:08;;;;;;;48.95;24.60;;;205.00;2252.80;;;;;;5051841;28;20570;-77
2023/03/06 03:44:33;;;;;;;;;;;204.90;2252.80;;;;;;5051385;28;20033;-76
2023/03/06 03:46:59;;;;;;;42.67;24.33;;;204.80;2252.80;;;;;;5050539;28;20361;-77
2023/03/06 03:49:24;;;;;;;;;;;204.80;2252.80;;;;;;5054104;28;20029;-76
2023/03/06 03:51:50;;;;;;;37.80;19.50;;;204.80;2252.80;;;;;;5065827;28;20356;-75
2023/03/06 03:54:16;;;;;;;;;;;204.80;2252.80;;;;;;5059268;28;20067;-76
2023/03/06 03:56:41;;;;;;;38.05;19.17;;;204.80;2252.80;;;;;;5061042;28;19911;-77
2023/03/06 03:59:07;;;;;;;;;;;204.80;2252.80;;;;;;5067920;28;20505;-76
2023/03/06 04:01:33;;;;;;;40.95;19.35;;;180.10;2252.80;;;;;;5061887;28;19947;-76
2023/03/06 04:03:58;;;;;;;;;;;180.10;2252.80;;;;;;5059694;28;20025;-76
2023/03/06 04:06:24;;;;;;;43.92;20.25;;;180.10;2252.80;;;;;;5067273;28;20379;-75
2023/03/06 04:08:49;;;;;;;;;;;180.10;2252.80;;;;;;5059668;28;20067;-76
2023/03/06 04:11:16;;;;;;;34.42;17.60;;;180.10;2252.80;;;;;;5057320;28;19905;-76
2023/03/06 04:13:41;;;;;;;36.88;18.30;;;180.00;2252.80;;;;;;5067292;28;20024;-76
2023/03/06 04:16:07;;;;;;;;;;;180.10;2252.80;;;;;;5064971;28;20025;-76
2023/03/06 04:18:33;;;;;;;37.55;17.83;;;180.10;2252.80;;;;;;5064492;28;19909;-76
2023/03/06 04:20:59;;;;;;;;;;;180.10;2252.80;;;;;;5066290;28;20064;-76
2023/03/06 04:23:26;;;;;;;38.33;19.65;;;180.00;2252.80;;;;;;5071542;28;19904;-76
2023/03/06 04:25:52;;;;;;;33.10;17.77;;;180.00;2252.80;;;;;;5066918;28;20557;-76
2023/03/06 04:28:18;;;;;;;;;;;180.00;2252.80;;;;;;5062881;28;20123;-76
2023/03/06 04:30:44;;;;;;;38.05;18.42;;;179.90;2252.80;;;;;;5066993;28;19987;-76
2023/03/06 04:33:09;;;;;;;;;;;179.90;2252.80;;;;;;5066687;28;20080;-75
2023/03/06 04:35:35;;;;;;;35.95;17.75;;;179.90;2252.80;;;;;;5057863;28;20265;-76
2023/03/06 04:38:01;;;;;;;;;;;179.80;2252.80;;;;;;5069123;28;20533;-76
2023/03/06 04:40:29;;;;;;;41.50;20.27;;;179.90;2252.80;;;;;;5060748;28;19912;-76
2023/03/06 04:42:57;;;;;;;35.63;20.15;;;179.70;2252.80;;;;;;5060999;28;20545;-76
2023/03/06 04:45:24;;;;;;;37.65;20.45;;;179.70;2252.80;;;;;;5056969;28;20134;-76
2023/03/06 04:47:50;;;;;;;33.45;18.92;;;179.70;2252.80;;;;;;5063850;28;20473;-76
2023/03/06 04:50:16;;;;;;;;;;;179.70;2252.80;;;;;;5059939;28;20052;-75
2023/03/06 04:52:42;;;;;;;36.40;18.30;;;179.30;2252.80;;;;;;5063841;28;19908;-76
2023/03/06 04:55:08;;;;;;;;;;;179.50;2252.80;;;;;;5066970;28;20056;-76
2023/03/06 04:57:39;;;;;;;32.13;18.70;;;179.50;2252.80;;;;;;5054102;28;19912;-76
2023/03/06 05:00:29;;;;;;;32.70;18.98;;;179.60;2252.80;;;;;;5062214;28;20033;-76
2023/03/06 05:02:55;;;;;;;46.55;21.20;;;179.60;2252.80;;;;;;5056281;28;20099;-76
2023/03/06 05:05:21;;;;;;;56.67;28.25;;;179.50;2252.80;;;;;;5062070;28;20035;-76
2023/03/06 05:07:47;;;;;;;;;;;179.60;2252.80;;;;;;5059759;28;20021;-76
2023/03/06 05:10:15;;;;;;;99.72;34.95;;;179.60;2252.80;;;;;;5071396;28;19904;-76
2023/03/06 05:12:41;;;;;;;92.50;37.47;;;179.40;2252.80;;;;;;5060232;28;20056;-76
2023/03/06 05:15:09;;;;;;;79.90;33.20;;;179.40;2252.80;;;;;;5060511;28;20029;-76
2023/03/06 05:17:35;;;;;;;75.97;32.42;;;179.40;2252.80;;;;;;5062996;28;20424;-76
2023/03/06 05:20:00;;;;;;;;;;;179.40;2252.80;;;;;;5060798;28;20032;-76
2023/03/06 05:22:26;;;;;;;57.75;27.08;;;179.40;2252.80;;;;;;5068291;28;19954;-76
2023/03/06 05:24:51;;;;;;;;;;;179.40;2252.80;;;;;;5059284;28;20482;-76
2023/03/06 05:27:17;;;;;;;55.22;27.42;;;179.40;2252.80;;;;;;5054123;28;19924;-75
2023/03/06 05:29:43;;;;;;;;;;;179.40;2252.80;;;;;;5056414;28;20051;-76
2023/03/06 05:32:08;;;;;;;62.72;28.02;;;179.40;2252.80;;;;;;5060097;28;19924;-76
2023/03/06 05:34:34;;;;;;;;;;;179.40;2252.80;;;;;;5060600;28;20040;-76
2023/03/06 05:37:00;;;;;;;61.95;27.63;;;179.40;2252.80;;;;;;5070942;28;19955;-76
2023/03/06 05:39:29;;;;;;;54.78;26.33;;;179.40;2252.80;;;;;;5067969;28;20020;-75
2023/03/06 05:41:55;;;;;;;48.45;28.35;;;179.40;2252.80;;;;;;5069433;28;20020;-76
2023/03/06 05:44:22;;;;;;;;;;;179.40;2252.80;;;;;;5066916;28;20512;-76
2023/03/06 05:46:49;;;;;;;47.55;23.90;;;179.40;2252.80;;;;;;5053836;28;20361;-76
2023/03/06 05:49:15;;;;;;;54.70;25.92;;;179.40;2252.80;;;;;;5053605;28;20094;-76
2023/03/06 05:51:40;;;;;;;;;;;179.40;2252.80;;;;;;5052892;28;20032;-76
2023/03/06 05:54:06;;;;;;;67.97;25.95;;;179.30;2252.80;;;;;;5053714;28;20307;-76
2023/03/06 05:56:32;;;;;;;;;;;179.20;2252.80;;;;;;5052735;28;20021;-76
2023/03/06 05:58:58;;;;;;;62.33;31.17;;;179.30;2252.80;;;;;;5052310;28;19908;-76
2023/03/06 06:01:24;;;;;;;;;;;179.30;2252.80;;;;;;5052497;28;20446;-76
2023/03/06 06:03:50;;;;;;;54.83;30.83;;;154.50;2252.80;;;;;;5052251;28;20411;-77
2023/03/06 06:06:16;;;;;;;70.05;32.80;;;154.40;2252.80;;;;;;5053799;28;20481;-76
2023/03/06 06:08:42;;;;;;;61.45;30.85;;;154.30;2252.80;;;;;;5052751;28;20091;-76
2023/03/06 06:11:09;;;;;;;61.08;33.20;;;154.40;2252.80;;;;;;5072440;28;20023;-76
2023/03/06 06:13:37;;;;;;;60.35;30.98;;;154.40;2252.80;;;;;;5072356;28;20116;-75
2023/03/06 06:16:11;;;;;;;52.95;27.85;;;154.40;2252.80;;;;;;5073573;28;20099;-75
2023/03/06 06:18:37;;;;;;;49.65;24.75;;;154.40;2252.80;;;;;;5073532;28;20051;-75
2023/03/06 06:21:06;;;;;;;43.45;23.80;;;154.40;2252.80;;;;;;5073423;28;20039;-75
2023/03/06 06:23:32;;;;;;;46.80;24.63;;;154.40;2252.80;;;;;;5073321;28;20107;-75
2023/03/06 06:25:59;;;;;;;48.42;24.58;;;154.40;2252.80;;;;;;5072207;28;20024;-75
2023/03/06 06:28:27;;;;;;;41.25;23.80;;;154.50;2252.80;;;;;;5072116;28;20047;-75
2023/03/06 06:30:53;;;;;;;39.55;22.48;;;154.50;2252.80;;;;;;5088400;28;20449;-74
2023/03/06 06:33:18;;;;;;;;;;;179.30;2252.80;;;;;;5075827;28;20131;-74
2023/03/06 06:35:44;;;;;;;43.45;21.85;;;179.30;2252.80;;;;;;5063318;28;20272;-74
2023/03/06 06:38:09;;;;;;;;;;;179.40;2252.80;;;;;;5070303;28;20511;-76
2023/03/06 06:40:35;;;;;;;39.03;20.65;;;179.40;2252.80;;;;;;5073315;28;19912;-77
2023/03/06 06:43:01;;;;;;;;;;;179.40;2252.80;;;;;;5072258;28;20117;-83
2023/03/06 06:45:26;;;;;;;49.05;22.25;;;179.50;2252.80;;;;;;5088934;28;19909;-79
2023/03/06 06:47:52;;;;;;;;;;;179.50;2252.80;;;;;;5072369;28;20040;-75
2023/03/06 06:50:18;;;;;;;46.15;21.38;;;179.50;2252.80;;;;;;5073173;28;20383;-77
2023/03/06 06:52:43;;;;;;;;;;;179.60;2252.80;;;;;;5056410;28;20031;-76
2023/03/06 06:55:10;;;;;;;41.55;21.35;;;179.70;2252.80;;;;;;5061895;28;19911;-77
2023/03/06 06:57:36;;;;;;;51.58;24.50;;;179.70;2252.80;;;;;;5052252;28;20028;-75
2023/03/06 07:00:02;;;;;;;;;;;179.80;2252.80;;;;;;5062579;28;20123;-76
2023/03/06 07:02:28;;;;;;;40.17;21.17;;;179.90;2252.80;;;;;;5071837;28;19943;-78
2023/03/06 07:04:54;;;;;;;;;;;180.00;2252.80;;;;;;5072183;28;20407;-78
2023/03/06 07:07:19;;;;;;;56.55;21.83;;;180.10;2252.80;;;;;;5088472;28;19950;-78
2023/03/06 07:09:45;;;;;;;;;;;180.10;2252.80;;;;;;5072389;28;20113;-77
2023/03/06 07:12:11;;;;;;;41.20;20.92;;;204.80;2252.80;;;;;;5088578;28;20360;-78
2023/03/06 07:14:36;;;;;;;;;;;204.90;2252.80;;;;;;5073333;28;20079;-78
2023/03/06 07:17:02;;;;;;;43.17;21.80;;;204.90;2252.80;;;;;;5088521;28;19904;-77
2023/03/06 07:19:27;;;;;;;;;;;205.00;2252.80;;;;;;5073461;28;20518;-79
2023/03/06 07:21:53;;;;;;;41.30;22.20;;;205.20;2252.80;;;;;;5072840;28;19916;-79
2023/03/06 07:24:19;;;;;;;;;;;205.40;2252.80;;;;;;5072151;28;20382;-77
2023/03/06 07:26:47;;;;;;;38.20;19.17;;;205.40;2252.80;;;;;;5088151;28;19923;-80
2023/03/06 07:29:13;;;;;;;48.35;20.02;;;205.50;2252.80;;;;;;5071511;28;20028;-78
2023/03/06 07:31:39;;;;;;;29.10;17.65;;;205.50;2252.80;;;;;;5087089;28;20036;-76
2023/03/06 07:34:05;;;;;;;;;;;205.70;2252.80;;;;;;5069037;28;20420;-77
2023/03/06 07:36:31;;;;;;;35.20;15.90;;;230.40;2252.80;;;;;;5070734;28;19909;-76
2023/03/06 07:38:57;;;;;;;26.65;15.52;;;205.70;2252.80;;;;;;5076402;28;20059;-77
2023/03/06 07:41:22;;;;;;;;;;;205.70;2252.80;;;;;;5070641;28;20452;-73
2023/03/06 07:43:49;;;;;;;33.30;17.10;;;230.40;2252.80;;;;;;5062398;28;19908;-76
2023/03/06 07:46:14;;;;;;;32.55;16.70;;;205.70;2252.80;;;;;;5076016;28;20099;-75
2023/03/06 07:48:40;;;;;;;;;;;230.60;2252.80;;;;;;5075345;28;20059;-76
2023/03/06 07:51:12;;;;;;;37.53;17.83;;;230.60;2252.80;;;;;;5076397;28;19904;-77
2023/03/06 07:53:37;;;;;;;29.08;15.18;;;230.60;2252.80;;;;;;5076112;28;20464;-76
2023/03/06 07:56:07;;;;;;;;;;;230.70;2252.80;;;;;;5076651;28;20032;-77
2023/03/06 07:58:34;;;;;;;34.28;18.88;;;230.70;2252.80;;;;;;5074559;28;19911;-78
2023/03/06 08:01:05;;;;;;;36.95;18.38;;;230.90;2252.80;;;;;;5074649;28;20078;-77
2023/03/06 08:03:31;;;;;;;35.58;18.05;;;230.90;2252.80;;;;;;5074585;28;20028;-78
2023/03/06 08:06:15;;;;;;;40.85;19.17;;;230.80;2252.80;;;;;;5075105;28;20040;-82
2023/03/06 08:08:43;;;;;;;29.15;17.10;;;230.80;2252.80;;;;;;5074063;28;20089;-77
2023/03/06 08:11:10;;;;;;;30.10;16.65;;;230.80;2252.80;;;;;;5075901;28;20029;-77
2023/03/06 08:13:37;;;;;;;33.97;18.20;;;230.80;2252.80;;;;;;5074381;28;20032;-77
2023/03/06 08:16:04;;;;;;;35.78;20.27;;;230.90;2252.80;;;;;;5080866;28;20036;-77
2023/03/06 08:18:30;;;;;;;33.15;18.17;;;230.90;2252.80;;;;;;5091441;28;20021;-77
2023/03/06 08:21:08;;;;;;;35.72;17.20;;;231.00;2252.80;;;;;;5091307;28;20037;-76
2023/03/06 08:23:34;;;;;;;27.08;14.77;;;231.10;2252.80;;;;;;5058781;28;20083;-77
2023/03/06 08:26:02;;;;;;;28.85;15.50;;;231.20;2252.80;;;;;;5068845;28;20028;-78
2023/03/06 08:28:28;;;;;;;27.90;14.45;;;231.30;2227.20;;;;;;5063659;28;20017;-77
2023/03/06 08:30:55;;;;;;;23.77;13.13;;;231.30;2201.60;;;;;;5073035;28;20480;-76
2023/03/06 08:33:21;;;;;;;20.08;10.93;;;256.20;2201.60;;;;;;5091204;28;20123;-76
2023/03/06 08:35:47;;;;;;;20.00;11.38;;;231.10;1996.80;;;;;;5075878;28;20542;-75
2023/03/06 08:38:13;;;;;;;19.15;11.55;;;231.10;2022.40;;;;;;5075647;28;20052;-74
2023/03/06 08:40:39;;;;;;;21.30;11.45;;;231.10;2099.20;;;;;;5075444;28;20063;-77
2023/03/06 08:43:07;;;;;;;26.90;12.35;;;231.20;2048.00;;;;;;5081530;28;20060;-75
2023/03/06 08:45:33;;;;;;;22.13;9.07;;;231.10;1971.20;;;;;;5075272;28;20028;-75
2023/03/06 08:47:58;;;;;;;24.77;12.75;;;231.20;1971.20;;;;;;5073586;28;20388;-75
2023/03/06 08:50:24;;;;;;;22.77;11.15;;;231.10;1996.80;;;;;;5075384;28;20074;-76
2023/03/06 08:52:50;;;;;;;;;;;231.20;1996.80;;;;;;5076023;28;20020;-76
2023/03/06 08:55:15;;;;;;;23.27;11.73;;;231.30;1996.80;;;;;;5073946;28;19927;-76
2023/03/06 08:57:41;;;;;;;;;;;256.10;2048.00;;;;;;5091229;28;20059;-81
2023/03/06 09:00:07;;;;;;;22.83;10.60;;;256.10;1945.60;;;;;;5073674;28;19912;-76
2023/03/06 09:02:33;;;;;;;30.33;12.85;;;256.20;1971.20;;;;;;5054971;28;20469;-77
2023/03/06 09:05:00;;;;;;;17.23;10.00;;;256.10;1945.60;;;;;;5055019;28;20025;-77
2023/03/06 09:07:26;;;;;;;19.27;9.93;;;256.20;1971.20;;;;;;5060562;28;20029;-77
2023/03/06 09:09:56;;;;;;;17.17;9.68;;;256.20;1920.00;;;;;;5073940;28;20079;-78
2023/03/06 09:12:22;;;;;;;17.73;9.88;;;256.40;1920.00;;;;;;5073160;28;20033;-77
2023/03/06 09:14:48;;;;;;;19.67;11.25;;;256.30;1868.80;;;;;;5071257;28;20407;-77
2023/03/06 09:17:14;;;;;;;19.13;10.43;;;256.40;1868.80;;;;;;5062659;28;20021;-77
2023/03/06 09:19:40;;;;;;;22.27;11.52;;;256.50;1868.80;;;;;;5074796;28;20460;-79
2023/03/06 09:22:06;;;;;;;21.75;10.63;;;256.40;1843.20;;;;;;5073639;28;20024;-76
2023/03/06 09:24:32;;;;;;;19.98;11.43;;;256.30;1843.20;;;;;;5073712;28;20056;-76
2023/03/06 09:26:58;;;;;;;19.73;10.45;;;256.40;1817.60;;;;;;5074927;28;20017;-78
2023/03/06 09:29:24;;;;;;;19.98;11.90;;;256.40;1843.20;;;;;;5073712;28;20028;-80
2023/03/06 09:31:50;;;;;;;24.45;11.93;;;256.30;1843.20;;;;;;5060528;28;20049;-79
2023/03/06 09:34:15;;;;;;;;;;;256.40;1843.20;;;;;;5053891;28;20056;-78
2023/03/06 09:36:41;;;;;;;26.25;14.23;;;256.50;1868.80;;;;;;5054310;28;19967;-76
2023/03/06 09:39:08;;;;;;;;;;;256.60;1894.40;;;;;;5061107;28;20016;-77
2023/03/06 09:41:36;;;;;;;26.80;10.63;;;256.90;1868.80;;;;;;5074717;28;19967;-76
2023/03/06 09:44:07;;;;;;;19.92;11.35;;;281.60;1868.80;;;;;;5074090;28;20027;-79
2023/03/06 09:47:02;;;;;;;22.10;11.95;;;281.60;1817.60;;;;;;5074775;28;20031;-78
2023/03/06 09:49:37;;;;;;;23.80;12.68;;;256.90;1843.20;;;;;;5072887;28;20077;-77
2023/03/06 09:52:21;;;;;;;20.90;9.60;;;281.70;1868.80;;;;;;5057773;28;20025;-76
2023/03/06 09:54:56;;;;;;;25.15;12.25;;;281.90;1766.40;;;;;;5069314;28;20025;-79
2023/03/06 09:57:24;;;;;;;17.65;10.90;;;281.90;1766.40;;;;;;5060976;28;20020;-77
2023/03/06 09:59:54;;;;;;;23.85;12.15;;;282.10;1792.00;;;;;;5073932;28;20081;-78
2023/03/06 10:02:55;;;;;;;18.48;10.40;;;282.20;1792.00;;;;;;5072914;28;20473;-79
2023/03/06 10:05:31;;;;;;;20.48;12.70;;;282.30;1715.20;;;;;;5073580;28;20028;-77
2023/03/06 10:08:16;;;;;;;21.00;11.55;;;282.50;1766.40;;;;;;5074103;28;20017;-78
2023/03/06 10:10:52;;;;;;;25.30;12.27;;;282.50;1740.80;;;;;;5074155;28;20040;-78
2023/03/06 10:13:29;;;;;;;21.75;12.30;;;307.30;1740.80;;;;;;5073906;28;20024;-78
2023/03/06 10:16:10;;;;;;;20.20;11.32;;;307.50;1715.20;;;;;;5073792;28;20039;-77
2023/03/06 10:18:37;;;;;;;23.73;12.75;;;307.40;1689.60;;;;;;5077954;28;20107;-77
2023/03/06 10:21:20;;;;;;;21.85;11.82;;;307.60;1740.80;;;;;;5073721;28;20094;-78
2023/03/06 10:24:22;;;;;;;21.85;12.02;;;307.90;1740.80;;;;;;5089209;28;20029;-76
2023/03/06 10:26:56;;;;;;;21.15;11.65;;;307.90;1664.00;;;;;;5073611;28;20021;-76
2023/03/06 10:30:05;;;;;;;23.58;11.90;;;308.00;1664.00;;;;;;5073513;28;20484;-76
2023/03/06 10:32:37;;;;;;;20.05;10.50;;;307.90;1612.80;;;;;;5073205;28;20516;-77
2023/03/06 10:35:14;;;;;;;21.27;12.02;;;307.90;1612.80;;;;;;5072081;28;20036;-76
2023/03/06 10:37:40;;;;;;;19.67;11.75;;;332.80;1664.00;;;;;;5052135;28;20186;-76
2023/03/06 10:40:39;;;;;;;25.42;12.93;;;332.90;1638.40;;;;;;5071464;28;20131;-77
2023/03/06 10:43:10;;;;;;;24.77;12.30;;;333.10;1612.80;;;;;;5074979;28;20103;-75
2023/03/06 10:45:46;;;;;;;23.42;13.27;;;333.10;1612.80;;;;;;5071966;28;20024;-77
2023/03/06 10:48:18;;;;;;;18.25;11.13;;;333.10;1587.20;;;;;;5088894;28;20518;-77
2023/03/06 10:50:44;;;;;;;24.20;13.65;;;333.20;1587.20;;;;;;5071931;28;20021;-77
2023/03/06 10:53:31;;;;;;;18.73;10.75;;;333.40;1587.20;;;;;;5088952;28;20104;-77
2023/03/06 10:55:59;;;;;;;21.88;11.63;;;333.40;1561.60;;;;;;5088721;28;20032;-76
2023/03/06 10:58:27;;;;;;;20.52;11.40;;;333.50;1536.00;;;;;;5088765;28;20028;-74
2023/03/06 11:01:19;;;;;;;21.85;11.55;;;333.40;1510.40;;;;;;5072854;28;20538;-77
2023/03/06 11:03:46;;;;;;;22.50;11.55;;;333.40;1510.40;;;;;;5071635;28;20067;-77
2023/03/06 11:06:14;;;;;;;18.92;10.63;;;333.70;1510.40;;;;;;5071106;28;20158;-78
2023/03/06 11:08:42;;;;;;;20.02;11.02;;;333.70;1510.40;;;;;;5088809;28;20493;-76
2023/03/06 11:11:15;;;;;;;23.35;12.35;;;333.20;1536.00;;;;;;5072512;28;20032;-77
2023/03/06 11:13:43;;;;;;;29.60;12.35;;;333.20;1510.40;;;;;;5060635;28;20123;-77
2023/03/06 11:16:31;;;;;;;19.30;11.15;;;333.10;1536.00;;;;;;5074453;28;20126;-77
2023/03/06 11:19:02;;;;;;;22.88;12.98;;;332.90;1561.60;;;;;;5059414;28;20026;-76
2023/03/06 11:21:33;;;;;;;19.63;10.70;;;332.90;1561.60;;;;;;5051435;28;20068;-77
2023/03/06 11:24:28;;;;;;;21.60;11.23;;;308.10;1536.00;;;;;;5053878;28;20032;-77
2023/03/06 11:26:58;;;;;;;25.52;12.25;;;332.90;1536.00;;;;;;5069014;28;20040;-77
2023/03/06 11:29:33;;;;;;;24.88;11.73;;;333.40;1536.00;;;;;;5072744;28;20017;-77
2023/03/06 11:32:15;;;;;;;19.23;11.73;;;333.50;1510.40;;;;;;5070868;28;20116;-77
2023/03/06 11:34:45;;;;;;;23.65;12.55;;;333.50;1536.00;;;;;;5071654;28;20025;-77
2023/03/06 11:37:28;;;;;;;26.23;12.50;;;358.50;1510.40;;;;;;5076817;28;20075;-77
2023/03/06 11:40:09;;;;;;;23.35;12.68;;;359.10;1484.80;;;;;;5061023;28;20409;-77
2023/03/06 11:42:56;;;;;;;25.85;13.20;;;359.30;1382.40;;;;;;5052401;28;20025;-76
2023/03/06 11:45:24;;;;;;;;;;;384.10;1356.80;;;;;;5066829;28;20384;-77
2023/03/06 11:48:23;;;;;;;22.08;12.75;;;384.20;1382.40;;;;;;5088396;28;19904;-77
2023/03/06 11:50:51;;;;;;;26.95;13.48;;;384.00;1382.40;;;;;;5072474;28;20415;-77
2023/03/06 11:53:21;;;;;;;22.75;12.07;;;384.30;1382.40;;;;;;5072546;28;20021;-77
2023/03/06 11:55:53;;;;;;;25.80;13.27;;;384.50;1382.40;;;;;;5059993;28;20020;-77
2023/03/06 11:58:38;;;;;;;23.00;11.70;;;384.70;1382.40;;;;;;5072533;28;20066;-77
2023/03/06 12:01:25;;;;;;;25.00;11.82;;;384.80;1356.80;;;;;;5072371;28;20037;-77
2023/03/06 12:03:51;;;;;;;23.88;11.85;;;409.90;1356.80;;;;;;5059650;28;20046;-77
2023/03/06 12:06:34;;;;;;;21.80;11.85;;;410.20;1280.00;;;;;;5072391;28;20024;-77
2023/03/06 12:09:19;;;;;;;25.00;12.73;;;384.60;1305.60;;;;;;5072581;28;20021;-77
2023/03/06 12:12:06;;;;;;;22.27;10.98;;;384.40;1356.80;;;;;;5070945;28;20028;-77
2023/03/06 12:14:49;;;;;;;23.50;14.45;;;384.70;1356.80;;;;;;5072072;28;20029;-77
2023/03/06 12:17:51;;;;;;;23.05;11.85;;;384.70;1331.20;;;;;;5066175;28;20032;-78
2023/03/06 12:20:29;;;;;;;20.33;11.52;;;384.40;1356.80;;;;;;5055863;28;20481;-78
2023/03/06 12:23:27;;;;;;;26.63;13.82;;;384.60;1356.80;;;;;;5068098;28;20047;-82
2023/03/06 12:26:01;;;;;;;24.38;11.32;;;409.80;1305.60;;;;;;5006767;28;20026;-76
2023/03/06 12:28:33;;;;;;;17.45;10.75;;;409.60;1331.20;;;;;;4997529;28;20034;-78